Terminal Aerodrome Forecast
Issued by NWS Blacksburg, VA

Home | Current Version | Previous Version | Text Only | Print | Product List | Glossary On
Versions: 1 2 3 4 5 6 7 8 9 10 11 12 13
000
FTUS41 KRNK 220520
TAFROA
TAF
KROA 220520Z 2206/2306 00000KT P6SM VCSH SCT040 OVC200
      TEMPO 2207/2210 6SM -SHRA OVC040
     FM221100 00000KT 4SM -RA OVC015
     FM221400 00000KT P6SM VCSH OVC007
     FM222000 15004KT P6SM OVC010
     FM230300 00000KT 4SM -DZ BR OVC007=

USA.gov is the U.S. government's official web portal to all federal, state and local government web resources and services.